sensor_id;sensor_type;location;lat;lon;timestamp;P1;durP1;ratioP1;P2;durP2;ratioP2
68315;SDS011;55508;54.368;18.406;2023-02-02T00:01:24;33.88;;;6.00;;
68315;SDS011;55508;54.368;18.406;2023-02-02T00:03:51;26.75;;;5.80;;
68315;SDS011;55508;54.368;18.406;2023-02-02T00:06:19;34.55;;;6.30;;
68315;SDS011;55508;54.368;18.406;2023-02-02T00:08:47;30.02;;;5.63;;
68315;SDS011;55508;54.368;18.406;2023-02-02T00:11:15;40.53;;;6.55;;
68315;SDS011;55508;54.368;18.406;2023-02-02T00:13:42;27.88;;;5.88;;
68315;SDS011;55508;54.368;18.406;2023-02-02T00:19:00;47.92;;;6.70;;
68315;SDS011;55508;54.368;18.406;2023-02-02T00:21:31;39.72;;;5.93;;
68315;SDS011;55508;54.368;18.406;2023-02-02T00:23:58;34.92;;;5.88;;
68315;SDS011;55508;54.368;18.406;2023-02-02T00:26:26;32.50;;;6.50;;
68315;SDS011;55508;54.368;18.406;2023-02-02T00:28:53;35.42;;;6.30;;
68315;SDS011;55508;54.368;18.406;2023-02-02T00:31:20;31.95;;;6.03;;
68315;SDS011;55508;54.368;18.406;2023-02-02T00:33:47;42.92;;;6.38;;
68315;SDS011;55508;54.368;18.406;2023-02-02T00:36:15;37.72;;;5.68;;
68315;SDS011;55508;54.368;18.406;2023-02-02T00:38:43;38.55;;;6.40;;
68315;SDS011;55508;54.368;18.406;2023-02-02T00:41:10;35.00;;;5.80;;
68315;SDS011;55508;54.368;18.406;2023-02-02T00:43:37;32.50;;;5.63;;
68315;SDS011;55508;54.368;18.406;2023-02-02T00:46:04;36.15;;;6.43;;
68315;SDS011;55508;54.368;18.406;2023-02-02T00:48:31;33.88;;;5.13;;
68315;SDS011;55508;54.368;18.406;2023-02-02T00:50:59;34.63;;;5.63;;
68315;SDS011;55508;54.368;18.406;2023-02-02T00:53:27;28.17;;;4.72;;
68315;SDS011;55508;54.368;18.406;2023-02-02T00:55:54;37.38;;;6.45;;
68315;SDS011;55508;54.368;18.406;2023-02-02T00:58:21;34.55;;;5.10;;
68315;SDS011;55508;54.368;18.406;2023-02-02T01:00:48;35.65;;;5.05;;
68315;SDS011;55508;54.368;18.406;2023-02-02T01:03:15;38.00;;;4.78;;
68315;SDS011;55508;54.368;18.406;2023-02-02T01:05:42;39.03;;;6.38;;
68315;SDS011;55508;54.368;18.406;2023-02-02T01:08:09;30.55;;;4.55;;
68315;SDS011;55508;54.368;18.406;2023-02-02T01:10:37;29.00;;;4.55;;
68315;SDS011;55508;54.368;18.406;2023-02-02T01:13:04;30.33;;;4.65;;
68315;SDS011;55508;54.368;18.406;2023-02-02T01:15:31;28.90;;;4.75;;
68315;SDS011;55508;54.368;18.406;2023-02-02T01:17:58;28.55;;;4.50;;
68315;SDS011;55508;54.368;18.406;2023-02-02T01:20:25;21.42;;;4.25;;
68315;SDS011;55508;54.368;18.406;2023-02-02T01:22:52;33.92;;;4.65;;
68315;SDS011;55508;54.368;18.406;2023-02-02T01:25:19;39.55;;;5.30;;
68315;SDS011;55508;54.368;18.406;2023-02-02T01:27:46;22.42;;;4.45;;
68315;SDS011;55508;54.368;18.406;2023-02-02T01:30:13;27.77;;;4.45;;
68315;SDS011;55508;54.368;18.406;2023-02-02T01:32:40;28.55;;;5.20;;
68315;SDS011;55508;54.368;18.406;2023-02-02T01:35:07;27.98;;;5.15;;
68315;SDS011;55508;54.368;18.406;2023-02-02T01:37:35;28.65;;;5.00;;
68315;SDS011;55508;54.368;18.406;2023-02-02T01:40:04;25.35;;;4.22;;
68315;SDS011;55508;54.368;18.406;2023-02-02T01:42:32;28.98;;;4.38;;
68315;SDS011;55508;54.368;18.406;2023-02-02T01:47:36;25.83;;;4.28;;
68315;SDS011;55508;54.368;18.406;2023-02-02T01:50:09;22.20;;;4.35;;
68315;SDS011;55508;54.368;18.406;2023-02-02T01:52:37;21.15;;;4.22;;
68315;SDS011;55508;54.368;18.406;2023-02-02T01:55:07;15.35;;;3.60;;
68315;SDS011;55508;54.368;18.406;2023-02-02T01:57:39;20.48;;;3.90;;
68315;SDS011;55508;54.368;18.406;2023-02-02T02:00:12;24.63;;;3.70;;
68315;SDS011;55508;54.368;18.406;2023-02-02T02:02:41;32.80;;;4.80;;
68315;SDS011;55508;54.368;18.406;2023-02-02T02:05:13;22.38;;;3.88;;
68315;SDS011;55508;54.368;18.406;2023-02-02T02:07:42;25.20;;;3.95;;
68315;SDS011;55508;54.368;18.406;2023-02-02T02:10:10;27.05;;;4.07;;
68315;SDS011;55508;54.368;18.406;2023-02-02T02:12:37;25.27;;;4.18;;
68315;SDS011;55508;54.368;18.406;2023-02-02T02:15:04;23.25;;;4.10;;
68315;SDS011;55508;54.368;18.406;2023-02-02T02:30:08;30.58;;;4.82;;
68315;SDS011;55508;54.368;18.406;2023-02-02T02:35:45;27.10;;;3.00;;
68315;SDS011;55508;54.368;18.406;2023-02-02T02:41:00;31.98;;;4.95;;
68315;SDS011;55508;54.368;18.406;2023-02-02T02:43:33;30.40;;;3.90;;
68315;SDS011;55508;54.368;18.406;2023-02-02T02:46:03;32.05;;;4.00;;
68315;SDS011;55508;54.368;18.406;2023-02-02T02:48:30;26.35;;;3.80;;
68315;SDS011;55508;54.368;18.406;2023-02-02T02:54:02;24.90;;;4.03;;
68315;SDS011;55508;54.368;18.406;2023-02-02T02:57:14;26.52;;;3.70;;
68315;SDS011;55508;54.368;18.406;2023-02-02T03:04:38;26.35;;;3.80;;
68315;SDS011;55508;54.368;18.406;2023-02-02T03:07:10;27.88;;;4.20;;
68315;SDS011;55508;54.368;18.406;2023-02-02T03:09:44;23.52;;;4.03;;
68315;SDS011;55508;54.368;18.406;2023-02-02T03:12:14;23.42;;;3.78;;
68315;SDS011;55508;54.368;18.406;2023-02-02T03:14:42;20.75;;;4.00;;
68315;SDS011;55508;54.368;18.406;2023-02-02T03:17:09;20.25;;;3.85;;
68315;SDS011;55508;54.368;18.406;2023-02-02T03:19:36;27.40;;;4.75;;
68315;SDS011;55508;54.368;18.406;2023-02-02T03:22:02;22.60;;;4.88;;
68315;SDS011;55508;54.368;18.406;2023-02-02T03:24:30;21.90;;;5.00;;
68315;SDS011;55508;54.368;18.406;2023-02-02T03:26:56;26.02;;;4.57;;
68315;SDS011;55508;54.368;18.406;2023-02-02T03:29:24;29.38;;;5.55;;
68315;SDS011;55508;54.368;18.406;2023-02-02T03:31:51;22.90;;;4.32;;
68315;SDS011;55508;54.368;18.406;2023-02-02T03:34:18;19.83;;;4.63;;
68315;SDS011;55508;54.368;18.406;2023-02-02T03:36:45;25.50;;;4.22;;
68315;SDS011;55508;54.368;18.406;2023-02-02T03:39:12;25.38;;;4.28;;
68315;SDS011;55508;54.368;18.406;2023-02-02T03:41:38;22.63;;;4.07;;
68315;SDS011;55508;54.368;18.406;2023-02-02T03:44:05;20.38;;;4.15;;
68315;SDS011;55508;54.368;18.406;2023-02-02T03:46:32;18.15;;;4.30;;
68315;SDS011;55508;54.368;18.406;2023-02-02T03:49:00;16.95;;;3.72;;
68315;SDS011;55508;54.368;18.406;2023-02-02T03:51:27;15.02;;;3.30;;
68315;SDS011;55508;54.368;18.406;2023-02-02T03:53:54;23.90;;;4.38;;
68315;SDS011;55508;54.368;18.406;2023-02-02T03:56:21;25.40;;;3.65;;
68315;SDS011;55508;54.368;18.406;2023-02-02T03:58:48;23.92;;;4.43;;
68315;SDS011;55508;54.368;18.406;2023-02-02T04:01:15;18.80;;;3.95;;
68315;SDS011;55508;54.368;18.406;2023-02-02T04:03:42;21.52;;;4.05;;
68315;SDS011;55508;54.368;18.406;2023-02-02T04:06:09;19.02;;;4.18;;
68315;SDS011;55508;54.368;18.406;2023-02-02T04:08:36;22.67;;;4.18;;
68315;SDS011;55508;54.368;18.406;2023-02-02T04:11:08;21.30;;;4.05;;
68315;SDS011;55508;54.368;18.406;2023-02-02T04:13:36;13.73;;;4.88;;
68315;SDS011;55508;54.368;18.406;2023-02-02T04:16:03;14.02;;;3.97;;
68315;SDS011;55508;54.368;18.406;2023-02-02T04:18:31;17.58;;;3.33;;
68315;SDS011;55508;54.368;18.406;2023-02-02T04:20:58;14.35;;;3.60;;
68315;SDS011;55508;54.368;18.406;2023-02-02T04:23:27;15.20;;;4.03;;
68315;SDS011;55508;54.368;18.406;2023-02-02T04:25:57;11.82;;;3.85;;
68315;SDS011;55508;54.368;18.406;2023-02-02T04:28:24;17.75;;;4.30;;
68315;SDS011;55508;54.368;18.406;2023-02-02T04:30:53;13.20;;;3.88;;
68315;SDS011;55508;54.368;18.406;2023-02-02T04:33:20;14.90;;;3.85;;
68315;SDS011;55508;54.368;18.406;2023-02-02T04:35:49;15.32;;;3.83;;
68315;SDS011;55508;54.368;18.406;2023-02-02T04:38:16;13.73;;;3.40;;
68315;SDS011;55508;54.368;18.406;2023-02-02T04:40:44;9.45;;;3.45;;
68315;SDS011;55508;54.368;18.406;2023-02-02T04:43:12;6.18;;;3.35;;
68315;SDS011;55508;54.368;18.406;2023-02-02T04:45:39;9.23;;;3.65;;
68315;SDS011;55508;54.368;18.406;2023-02-02T04:48:08;11.20;;;3.63;;
68315;SDS011;55508;54.368;18.406;2023-02-02T04:50:35;8.55;;;3.55;;
68315;SDS011;55508;54.368;18.406;2023-02-02T04:53:02;7.47;;;3.92;;
68315;SDS011;55508;54.368;18.406;2023-02-02T04:55:29;9.57;;;4.25;;
68315;SDS011;55508;54.368;18.406;2023-02-02T04:57:56;7.38;;;4.40;;
68315;SDS011;55508;54.368;18.406;2023-02-02T05:00:23;8.13;;;3.85;;
68315;SDS011;55508;54.368;18.406;2023-02-02T05:02:50;9.02;;;4.07;;
68315;SDS011;55508;54.368;18.406;2023-02-02T05:05:17;7.53;;;4.40;;
68315;SDS011;55508;54.368;18.406;2023-02-02T05:07:46;7.78;;;4.22;;
68315;SDS011;55508;54.368;18.406;2023-02-02T05:10:13;10.48;;;5.00;;
68315;SDS011;55508;54.368;18.406;2023-02-02T05:12:39;9.07;;;4.30;;
68315;SDS011;55508;54.368;18.406;2023-02-02T05:15:07;7.97;;;4.75;;
68315;SDS011;55508;54.368;18.406;2023-02-02T05:17:34;10.07;;;4.93;;
68315;SDS011;55508;54.368;18.406;2023-02-02T05:20:02;7.82;;;4.43;;
68315;SDS011;55508;54.368;18.406;2023-02-02T05:22:29;10.98;;;5.80;;
68315;SDS011;55508;54.368;18.406;2023-02-02T05:24:56;13.27;;;5.85;;
68315;SDS011;55508;54.368;18.406;2023-02-02T05:27:23;10.68;;;6.32;;
68315;SDS011;55508;54.368;18.406;2023-02-02T05:29:50;13.32;;;6.13;;
68315;SDS011;55508;54.368;18.406;2023-02-02T05:32:17;9.27;;;5.50;;
68315;SDS011;55508;54.368;18.406;2023-02-02T05:34:45;12.73;;;5.88;;
68315;SDS011;55508;54.368;18.406;2023-02-02T05:37:11;9.43;;;5.53;;
68315;SDS011;55508;54.368;18.406;2023-02-02T05:39:38;9.93;;;5.40;;
68315;SDS011;55508;54.368;18.406;2023-02-02T05:42:05;9.50;;;5.63;;
68315;SDS011;55508;54.368;18.406;2023-02-02T05:44:32;12.70;;;5.72;;
68315;SDS011;55508;54.368;18.406;2023-02-02T05:46:59;10.48;;;7.22;;
68315;SDS011;55508;54.368;18.406;2023-02-02T05:49:26;12.75;;;6.53;;
68315;SDS011;55508;54.368;18.406;2023-02-02T05:51:54;6.70;;;6.10;;
68315;SDS011;55508;54.368;18.406;2023-02-02T05:54:22;14.95;;;6.95;;
68315;SDS011;55508;54.368;18.406;2023-02-02T05:56:50;11.10;;;6.88;;
68315;SDS011;55508;54.368;18.406;2023-02-02T05:59:18;10.57;;;6.28;;
68315;SDS011;55508;54.368;18.406;2023-02-02T06:01:45;9.55;;;4.80;;
68315;SDS011;55508;54.368;18.406;2023-02-02T06:04:13;7.75;;;5.13;;
68315;SDS011;55508;54.368;18.406;2023-02-02T06:06:41;15.52;;;5.97;;
68315;SDS011;55508;54.368;18.406;2023-02-02T06:09:08;5.95;;;4.05;;
68315;SDS011;55508;54.368;18.406;2023-02-02T06:11:35;5.80;;;4.18;;
68315;SDS011;55508;54.368;18.406;2023-02-02T06:14:02;3.28;;;3.00;;
68315;SDS011;55508;54.368;18.406;2023-02-02T06:16:29;3.70;;;2.88;;
68315;SDS011;55508;54.368;18.406;2023-02-02T06:18:57;5.82;;;3.33;;
68315;SDS011;55508;54.368;18.406;2023-02-02T06:21:24;3.35;;;1.85;;
68315;SDS011;55508;54.368;18.406;2023-02-02T06:23:51;3.30;;;1.90;;
68315;SDS011;55508;54.368;18.406;2023-02-02T06:26:18;2.78;;;1.40;;
68315;SDS011;55508;54.368;18.406;2023-02-02T06:28:49;2.10;;;1.17;;
68315;SDS011;55508;54.368;18.406;2023-02-02T06:33:45;1.55;;;0.88;;
68315;SDS011;55508;54.368;18.406;2023-02-02T06:36:13;2.00;;;1.10;;
68315;SDS011;55508;54.368;18.406;2023-02-02T06:38:40;1.58;;;0.95;;
68315;SDS011;55508;54.368;18.406;2023-02-02T06:41:08;1.52;;;1.00;;
68315;SDS011;55508;54.368;18.406;2023-02-02T06:43:35;2.10;;;1.90;;
68315;SDS011;55508;54.368;18.406;2023-02-02T06:46:02;1.70;;;1.60;;
68315;SDS011;55508;54.368;18.406;2023-02-02T06:48:29;1.50;;;1.38;;
68315;SDS011;55508;54.368;18.406;2023-02-02T06:50:57;3.30;;;1.30;;
68315;SDS011;55508;54.368;18.406;2023-02-02T06:53:25;1.02;;;1.00;;
68315;SDS011;55508;54.368;18.406;2023-02-02T06:55:56;1.80;;;1.35;;
68315;SDS011;55508;54.368;18.406;2023-02-02T06:58:24;2.22;;;1.38;;
68315;SDS011;55508;54.368;18.406;2023-02-02T07:00:51;2.03;;;1.10;;
68315;SDS011;55508;54.368;18.406;2023-02-02T07:03:19;0.98;;;0.90;;
68315;SDS011;55508;54.368;18.406;2023-02-02T07:05:47;2.17;;;1.08;;
68315;SDS011;55508;54.368;18.406;2023-02-02T07:08:15;1.42;;;1.33;;
68315;SDS011;55508;54.368;18.406;2023-02-02T07:10:42;1.35;;;1.15;;
68315;SDS011;55508;54.368;18.406;2023-02-02T07:13:30;2.65;;;1.45;;
68315;SDS011;55508;54.368;18.406;2023-02-02T07:15:57;2.13;;;1.42;;
68315;SDS011;55508;54.368;18.406;2023-02-02T07:18:24;2.40;;;1.65;;
68315;SDS011;55508;54.368;18.406;2023-02-02T07:20:51;2.60;;;2.00;;
68315;SDS011;55508;54.368;18.406;2023-02-02T07:23:18;3.08;;;1.70;;
68315;SDS011;55508;54.368;18.406;2023-02-02T07:25:45;3.90;;;1.48;;
68315;SDS011;55508;54.368;18.406;2023-02-02T07:28:12;5.55;;;0.95;;
68315;SDS011;55508;54.368;18.406;2023-02-02T07:30:39;1.83;;;1.25;;
68315;SDS011;55508;54.368;18.406;2023-02-02T07:33:06;3.83;;;1.70;;
68315;SDS011;55508;54.368;18.406;2023-02-02T07:35:33;3.20;;;1.33;;
68315;SDS011;55508;54.368;18.406;2023-02-02T07:38:00;1.42;;;1.10;;
68315;SDS011;55508;54.368;18.406;2023-02-02T07:40:27;3.13;;;1.55;;
68315;SDS011;55508;54.368;18.406;2023-02-02T07:42:54;3.55;;;2.35;;
68315;SDS011;55508;54.368;18.406;2023-02-02T07:45:26;4.70;;;2.30;;
68315;SDS011;55508;54.368;18.406;2023-02-02T07:47:57;5.75;;;2.42;;
68315;SDS011;55508;54.368;18.406;2023-02-02T07:50:25;4.13;;;2.20;;
68315;SDS011;55508;54.368;18.406;2023-02-02T07:52:53;2.50;;;2.30;;
68315;SDS011;55508;54.368;18.406;2023-02-02T07:55:21;3.55;;;2.92;;
68315;SDS011;55508;54.368;18.406;2023-02-02T07:57:50;3.97;;;3.38;;
68315;SDS011;55508;54.368;18.406;2023-02-02T08:00:17;4.55;;;2.65;;
68315;SDS011;55508;54.368;18.406;2023-02-02T08:02:47;2.40;;;2.20;;
68315;SDS011;55508;54.368;18.406;2023-02-02T08:05:15;3.03;;;2.65;;
68315;SDS011;55508;54.368;18.406;2023-02-02T08:07:42;2.67;;;2.47;;
68315;SDS011;55508;54.368;18.406;2023-02-02T08:10:10;4.43;;;2.83;;
68315;SDS011;55508;54.368;18.406;2023-02-02T08:12:37;3.45;;;2.60;;
68315;SDS011;55508;54.368;18.406;2023-02-02T08:15:04;4.80;;;2.90;;
68315;SDS011;55508;54.368;18.406;2023-02-02T08:17:33;2.90;;;2.33;;
68315;SDS011;55508;54.368;18.406;2023-02-02T08:20:00;3.90;;;3.33;;
68315;SDS011;55508;54.368;18.406;2023-02-02T08:22:27;2.95;;;2.58;;
68315;SDS011;55508;54.368;18.406;2023-02-02T08:24:53;2.80;;;2.55;;
68315;SDS011;55508;54.368;18.406;2023-02-02T08:27:21;2.60;;;2.08;;
68315;SDS011;55508;54.368;18.406;2023-02-02T08:29:48;4.57;;;2.53;;
68315;SDS011;55508;54.368;18.406;2023-02-02T08:32:15;2.75;;;2.55;;
68315;SDS011;55508;54.368;18.406;2023-02-02T08:34:41;3.65;;;2.65;;
68315;SDS011;55508;54.368;18.406;2023-02-02T08:37:08;3.10;;;2.53;;
68315;SDS011;55508;54.368;18.406;2023-02-02T08:39:36;3.03;;;2.70;;
68315;SDS011;55508;54.368;18.406;2023-02-02T08:42:03;3.72;;;2.08;;
68315;SDS011;55508;54.368;18.406;2023-02-02T08:44:30;3.50;;;2.60;;
68315;SDS011;55508;54.368;18.406;2023-02-02T08:47:16;2.65;;;2.30;;
68315;SDS011;55508;54.368;18.406;2023-02-02T08:49:44;3.45;;;2.97;;
68315;SDS011;55508;54.368;18.406;2023-02-02T08:52:11;3.47;;;2.15;;
68315;SDS011;55508;54.368;18.406;2023-02-02T08:54:38;2.40;;;2.20;;
68315;SDS011;55508;54.368;18.406;2023-02-02T08:57:05;2.63;;;2.42;;
68315;SDS011;55508;54.368;18.406;2023-02-02T08:59:32;2.50;;;2.30;;
68315;SDS011;55508;54.368;18.406;2023-02-02T09:01:59;2.83;;;2.60;;
68315;SDS011;55508;54.368;18.406;2023-02-02T09:04:26;2.38;;;2.17;;
68315;SDS011;55508;54.368;18.406;2023-02-02T09:06:53;2.45;;;2.08;;
68315;SDS011;55508;54.368;18.406;2023-02-02T09:09:20;5.00;;;1.40;;
68315;SDS011;55508;54.368;18.406;2023-02-02T09:11:47;1.83;;;1.35;;
68315;SDS011;55508;54.368;18.406;2023-02-02T09:14:14;2.85;;;1.45;;
68315;SDS011;55508;54.368;18.406;2023-02-02T09:16:41;3.88;;;1.48;;
68315;SDS011;55508;54.368;18.406;2023-02-02T09:19:09;1.10;;;1.00;;
68315;SDS011;55508;54.368;18.406;2023-02-02T09:21:37;1.70;;;1.13;;
68315;SDS011;55508;54.368;18.406;2023-02-02T09:24:05;1.10;;;0.90;;
68315;SDS011;55508;54.368;18.406;2023-02-02T09:26:33;1.30;;;0.82;;
68315;SDS011;55508;54.368;18.406;2023-02-02T09:29:01;1.70;;;1.35;;
68315;SDS011;55508;54.368;18.406;2023-02-02T09:31:31;2.22;;;0.70;;
68315;SDS011;55508;54.368;18.406;2023-02-02T09:34:02;2.08;;;1.02;;
68315;SDS011;55508;54.368;18.406;2023-02-02T09:36:31;1.33;;;0.75;;
68315;SDS011;55508;54.368;18.406;2023-02-02T09:38:58;1.58;;;0.85;;
68315;SDS011;55508;54.368;18.406;2023-02-02T09:50:00;1.85;;;1.30;;
68315;SDS011;55508;54.368;18.406;2023-02-02T09:58:11;1.90;;;1.40;;
68315;SDS011;55508;54.368;18.406;2023-02-02T10:00:45;3.40;;;1.60;;
68315;SDS011;55508;54.368;18.406;2023-02-02T10:06:09;2.20;;;1.42;;
68315;SDS011;55508;54.368;18.406;2023-02-02T10:08:41;1.85;;;1.40;;
68315;SDS011;55508;54.368;18.406;2023-02-02T10:13:51;5.55;;;1.40;;
68315;SDS011;55508;54.368;18.406;2023-02-02T10:16:20;1.80;;;0.90;;
68315;SDS011;55508;54.368;18.406;2023-02-02T10:24:10;3.08;;;1.48;;
68315;SDS011;55508;54.368;18.406;2023-02-02T10:26:57;3.70;;;1.58;;
68315;SDS011;55508;54.368;18.406;2023-02-02T10:35:32;1.08;;;0.90;;
68315;SDS011;55508;54.368;18.406;2023-02-02T10:41:13;3.13;;;2.20;;
68315;SDS011;55508;54.368;18.406;2023-02-02T10:46:56;4.53;;;3.30;;
68315;SDS011;55508;54.368;18.406;2023-02-02T10:49:36;2.28;;;1.85;;
68315;SDS011;55508;54.368;18.406;2023-02-02T10:52:15;4.93;;;1.58;;
68315;SDS011;55508;54.368;18.406;2023-02-02T10:54:46;3.22;;;1.75;;
68315;SDS011;55508;54.368;18.406;2023-02-02T11:03:13;2.25;;;1.35;;
68315;SDS011;55508;54.368;18.406;2023-02-02T11:05:41;1.60;;;1.27;;
68315;SDS011;55508;54.368;18.406;2023-02-02T11:08:31;2.60;;;1.60;;
68315;SDS011;55508;54.368;18.406;2023-02-02T11:16:22;2.85;;;2.00;;
68315;SDS011;55508;54.368;18.406;2023-02-02T11:19:25;2.40;;;1.30;;
68315;SDS011;55508;54.368;18.406;2023-02-02T11:21:56;2.17;;;1.42;;
68315;SDS011;55508;54.368;18.406;2023-02-02T11:27:04;2.30;;;1.23;;
68315;SDS011;55508;54.368;18.406;2023-02-02T11:29:48;2.63;;;0.73;;
68315;SDS011;55508;54.368;18.406;2023-02-02T11:37:34;5.13;;;0.60;;
68315;SDS011;55508;54.368;18.406;2023-02-02T11:40:45;2.15;;;0.80;;
68315;SDS011;55508;54.368;18.406;2023-02-02T11:42:55;1.45;;;0.70;;
68315;SDS011;55508;54.368;18.406;2023-02-02T11:45:32;2.00;;;1.17;;
68315;SDS011;55508;54.368;18.406;2023-02-02T11:48:12;1.95;;;0.85;;
68315;SDS011;55508;54.368;18.406;2023-02-02T11:50:48;1.80;;;0.65;;
68315;SDS011;55508;54.368;18.406;2023-02-02T11:56:16;1.75;;;1.40;;
68315;SDS011;55508;54.368;18.406;2023-02-02T12:01:24;2.03;;;1.17;;
68315;SDS011;55508;54.368;18.406;2023-02-02T12:03:53;1.52;;;1.00;;
68315;SDS011;55508;54.368;18.406;2023-02-02T12:06:26;1.58;;;0.80;;
68315;SDS011;55508;54.368;18.406;2023-02-02T12:09:03;1.55;;;0.75;;
68315;SDS011;55508;54.368;18.406;2023-02-02T12:17:22;3.38;;;2.22;;
68315;SDS011;55508;54.368;18.406;2023-02-02T12:22:55;1.67;;;1.25;;
68315;SDS011;55508;54.368;18.406;2023-02-02T12:26:02;2.75;;;1.83;;
68315;SDS011;55508;54.368;18.406;2023-02-02T13:02:47;2.42;;;1.83;;
68315;SDS011;55508;54.368;18.406;2023-02-02T13:08:32;2.92;;;2.00;;
68315;SDS011;55508;54.368;18.406;2023-02-02T13:11:27;3.53;;;1.90;;
68315;SDS011;55508;54.368;18.406;2023-02-02T13:14:00;4.78;;;1.50;;
68315;SDS011;55508;54.368;18.406;2023-02-02T13:16:34;3.35;;;1.42;;
68315;SDS011;55508;54.368;18.406;2023-02-02T13:19:06;3.67;;;1.98;;
68315;SDS011;55508;54.368;18.406;2023-02-02T13:21:37;4.05;;;2.00;;
68315;SDS011;55508;54.368;18.406;2023-02-02T13:24:05;4.13;;;2.28;;
68315;SDS011;55508;54.368;18.406;2023-02-02T13:26:35;3.17;;;2.00;;
68315;SDS011;55508;54.368;18.406;2023-02-02T13:29:05;4.78;;;1.55;;
68315;SDS011;55508;54.368;18.406;2023-02-02T13:34:18;4.07;;;2.38;;
68315;SDS011;55508;54.368;18.406;2023-02-02T13:36:53;6.90;;;3.05;;
68315;SDS011;55508;54.368;18.406;2023-02-02T13:39:27;7.13;;;4.20;;
68315;SDS011;55508;54.368;18.406;2023-02-02T13:41:59;4.15;;;2.45;;
68315;SDS011;55508;54.368;18.406;2023-02-02T13:44:31;5.22;;;2.47;;
68315;SDS011;55508;54.368;18.406;2023-02-02T13:49:49;5.28;;;2.65;;
68315;SDS011;55508;54.368;18.406;2023-02-02T14:00:47;2.90;;;1.70;;
68315;SDS011;55508;54.368;18.406;2023-02-02T14:03:36;4.00;;;2.33;;
68315;SDS011;55508;54.368;18.406;2023-02-02T14:06:14;3.85;;;1.55;;
68315;SDS011;55508;54.368;18.406;2023-02-02T14:08:55;2.65;;;1.25;;
68315;SDS011;55508;54.368;18.406;2023-02-02T14:11:25;9.00;;;1.70;;
68315;SDS011;55508;54.368;18.406;2023-02-02T14:14:16;5.32;;;1.70;;
68315;SDS011;55508;54.368;18.406;2023-02-02T14:16:58;1.58;;;0.70;;
68315;SDS011;55508;54.368;18.406;2023-02-02T14:22:18;6.28;;;2.83;;
68315;SDS011;55508;54.368;18.406;2023-02-02T14:27:57;2.08;;;1.27;;
68315;SDS011;55508;54.368;18.406;2023-02-02T14:30:35;3.97;;;1.40;;
68315;SDS011;55508;54.368;18.406;2023-02-02T14:35:57;3.67;;;1.10;;
68315;SDS011;55508;54.368;18.406;2023-02-02T14:41:34;3.30;;;1.63;;
68315;SDS011;55508;54.368;18.406;2023-02-02T14:44:27;5.57;;;2.35;;
68315;SDS011;55508;54.368;18.406;2023-02-02T14:46:54;5.63;;;2.92;;
68315;SDS011;55508;54.368;18.406;2023-02-02T14:49:21;6.82;;;3.45;;
68315;SDS011;55508;54.368;18.406;2023-02-02T14:51:55;2.58;;;1.45;;
68315;SDS011;55508;54.368;18.406;2023-02-02T14:54:26;5.28;;;2.00;;
68315;SDS011;55508;54.368;18.406;2023-02-02T14:56:57;5.95;;;2.30;;
68315;SDS011;55508;54.368;18.406;2023-02-02T15:02:11;6.05;;;2.47;;
68315;SDS011;55508;54.368;18.406;2023-02-02T15:04:41;4.82;;;2.67;;
68315;SDS011;55508;54.368;18.406;2023-02-02T15:09:57;3.78;;;3.38;;
68315;SDS011;55508;54.368;18.406;2023-02-02T15:12:31;3.35;;;2.72;;
68315;SDS011;55508;54.368;18.406;2023-02-02T15:17:47;5.00;;;2.10;;
68315;SDS011;55508;54.368;18.406;2023-02-02T15:20:23;3.60;;;2.25;;
68315;SDS011;55508;54.368;18.406;2023-02-02T15:22:56;4.65;;;2.08;;
68315;SDS011;55508;54.368;18.406;2023-02-02T15:33:41;2.15;;;1.15;;
68315;SDS011;55508;54.368;18.406;2023-02-02T15:36:14;2.72;;;1.90;;
68315;SDS011;55508;54.368;18.406;2023-02-02T15:38:44;1.88;;;1.38;;
68315;SDS011;55508;54.368;18.406;2023-02-02T15:41:33;2.53;;;1.63;;
68315;SDS011;55508;54.368;18.406;2023-02-02T15:46:55;2.78;;;2.20;;
68315;SDS011;55508;54.368;18.406;2023-02-02T15:49:25;3.70;;;2.80;;
68315;SDS011;55508;54.368;18.406;2023-02-02T15:52:14;2.92;;;2.50;;
68315;SDS011;55508;54.368;18.406;2023-02-02T15:54:48;3.28;;;2.20;;
68315;SDS011;55508;54.368;18.406;2023-02-02T15:57:26;3.75;;;1.90;;
68315;SDS011;55508;54.368;18.406;2023-02-02T15:59:55;2.83;;;1.75;;
68315;SDS011;55508;54.368;18.406;2023-02-02T16:02:39;1.52;;;1.20;;
68315;SDS011;55508;54.368;18.406;2023-02-02T16:07:57;4.60;;;3.05;;
68315;SDS011;55508;54.368;18.406;2023-02-02T16:10:32;3.25;;;2.95;;
68315;SDS011;55508;54.368;18.406;2023-02-02T16:12:59;6.80;;;2.45;;
68315;SDS011;55508;54.368;18.406;2023-02-02T16:15:28;4.10;;;2.63;;
68315;SDS011;55508;54.368;18.406;2023-02-02T16:17:57;5.03;;;2.75;;
68315;SDS011;55508;54.368;18.406;2023-02-02T16:22:58;3.65;;;2.10;;
68315;SDS011;55508;54.368;18.406;2023-02-02T16:25:31;3.25;;;2.28;;
68315;SDS011;55508;54.368;18.406;2023-02-02T16:28:00;6.97;;;2.83;;
68315;SDS011;55508;54.368;18.406;2023-02-02T16:30:32;4.82;;;2.53;;
68315;SDS011;55508;54.368;18.406;2023-02-02T16:35:53;3.03;;;2.15;;
68315;SDS011;55508;54.368;18.406;2023-02-02T16:38:34;3.40;;;2.75;;
68315;SDS011;55508;54.368;18.406;2023-02-02T16:43:29;3.80;;;2.92;;
68315;SDS011;55508;54.368;18.406;2023-02-02T16:45:58;6.43;;;4.55;;
68315;SDS011;55508;54.368;18.406;2023-02-02T16:48:34;4.70;;;3.15;;
68315;SDS011;55508;54.368;18.406;2023-02-02T16:53:37;1.98;;;1.50;;
68315;SDS011;55508;54.368;18.406;2023-02-02T16:56:04;5.25;;;2.13;;
68315;SDS011;55508;54.368;18.406;2023-02-02T16:58:35;3.60;;;2.95;;
68315;SDS011;55508;54.368;18.406;2023-02-02T17:01:09;3.70;;;2.35;;
68315;SDS011;55508;54.368;18.406;2023-02-02T17:03:47;2.70;;;2.50;;
68315;SDS011;55508;54.368;18.406;2023-02-02T17:06:20;4.53;;;2.20;;
68315;SDS011;55508;54.368;18.406;2023-02-02T17:08:51;5.25;;;2.75;;
68315;SDS011;55508;54.368;18.406;2023-02-02T17:11:21;8.45;;;2.80;;
68315;SDS011;55508;54.368;18.406;2023-02-02T17:13:50;4.45;;;2.88;;
68315;SDS011;55508;54.368;18.406;2023-02-02T17:16:19;4.43;;;3.33;;
68315;SDS011;55508;54.368;18.406;2023-02-02T17:18:47;3.88;;;2.30;;
68315;SDS011;55508;54.368;18.406;2023-02-02T17:21:21;3.95;;;2.58;;
68315;SDS011;55508;54.368;18.406;2023-02-02T17:23:50;4.10;;;2.50;;
68315;SDS011;55508;54.368;18.406;2023-02-02T17:26:19;4.07;;;2.95;;
68315;SDS011;55508;54.368;18.406;2023-02-02T17:28:57;3.58;;;2.53;;
68315;SDS011;55508;54.368;18.406;2023-02-02T17:31:25;3.13;;;2.22;;
68315;SDS011;55508;54.368;18.406;2023-02-02T17:33:52;3.58;;;2.17;;
68315;SDS011;55508;54.368;18.406;2023-02-02T17:36:19;4.10;;;2.08;;
68315;SDS011;55508;54.368;18.406;2023-02-02T17:38:46;3.97;;;3.58;;
68315;SDS011;55508;54.368;18.406;2023-02-02T17:41:13;4.97;;;2.95;;
68315;SDS011;55508;54.368;18.406;2023-02-02T17:43:40;2.83;;;2.17;;
68315;SDS011;55508;54.368;18.406;2023-02-02T17:46:09;5.82;;;2.58;;
68315;SDS011;55508;54.368;18.406;2023-02-02T17:48:38;4.28;;;2.60;;
68315;SDS011;55508;54.368;18.406;2023-02-02T17:51:08;3.90;;;2.88;;
68315;SDS011;55508;54.368;18.406;2023-02-02T17:53:42;4.10;;;2.38;;
68315;SDS011;55508;54.368;18.406;2023-02-02T17:56:10;5.60;;;3.05;;
68315;SDS011;55508;54.368;18.406;2023-02-02T17:58:37;3.75;;;2.28;;
68315;SDS011;55508;54.368;18.406;2023-02-02T18:01:04;4.95;;;3.00;;
68315;SDS011;55508;54.368;18.406;2023-02-02T18:03:32;3.42;;;2.67;;
68315;SDS011;55508;54.368;18.406;2023-02-02T18:06:00;2.95;;;1.60;;
68315;SDS011;55508;54.368;18.406;2023-02-02T18:08:28;3.70;;;1.73;;